METAR Data
IDs: Format: Raw Decoded Include TAF

Data at: 1956 UTC 17 Nov 2019

KJEF 171953Z 23005KT 10SM -RA OVC060 08/03 A2993 RMK AO2 SLP127 P0002 T00780033
KJEF 171853Z 27004KT 10SM -RA OVC060 08/03 A2995 RMK AO2 RAB15 SLP135 P0001 T00780028
KJEF 171753Z 24010KT 10SM OVC095 10/M01 A2997 RMK AO2 SLP140 T01001006 10100 20033 58014
KJEF 171653Z 00000KT 10SM OVC110 09/00 A2999 RMK AO2 SLP147 T00940000
KJEF 171553Z 19004KT 10SM FEW120 08/00 A3000 RMK AO2 SLP151 T00830000
KJEF 171453Z 11004KT 10SM CLR 06/00 A3001 RMK AO2 SLP156 T00610000 56007
KJEF 171353Z 11005KT 10SM CLR 06/00 A3002 RMK AO2 SLP160 T00560000
KJEF 171253Z 10007KT 10SM CLR 05/M01 A3002 RMK AO2 SLP158 T00501006
KJEF 171153Z AUTO 11005KT 10SM CLR 04/00 A3004 RMK AO2 SLP163 T00390000 10050 20028 58012
KJEF 171053Z AUTO 12005KT 10SM CLR 05/M01 A3005 RMK AO2 SLP168 T00501006
KJEF 170953Z AUTO 10007KT 10SM CLR 05/00 A3006 RMK AO2 SLP172 T00500000
KJEF 170853Z AUTO 10009KT 10SM CLR 04/00 A3007 RMK AO2 SLP174 T00440000 58018
KJEF 170753Z AUTO 11005KT 10SM CLR 04/00 A3011 RMK AO2 SLP187 T00440000
KJEF 170653Z AUTO 14006KT 10SM CLR 03/00 A3011 RMK AO2 SLP190 T00330000
KJEF 170553Z AUTO 11005KT 10SM CLR 04/00 A3012 RMK AO2 SLP194 T00440000 10094 20028 401281039 50000
KJEF 170453Z AUTO 13005KT 10SM CLR 04/00 A3013 RMK AO2 SLP194 T00390000
KJEF 170353Z AUTO 13007KT 10SM CLR 04/00 A3013 RMK AO2 SLP195 T00440000
KJEF 170253Z 13007KT 10SM CLR 04/00 A3012 RMK AO2 SLP195 T00440000 55003
KJEF 170153Z 13007KT 10SM CLR 04/00 A3012 RMK AO2 SLP194 T00440000
KJEF 170053Z 11005KT 10SM CLR 07/01 A3013 RMK AO2 SLP198 T00670006
KJEF 162353Z 10004KT 10SM CLR 09/01 A3013 RMK AO2 SLP197 T00940011 10128 20083 56012
KJEF 162253Z 11005KT 10SM CLR 11/01 A3014 RMK AO2 SLP199 T01110011
KJEF 162153Z 12007KT 10SM CLR 13/01 A3015 RMK AO2 SLP202 T01280011
KJEF 162053Z 12007KT 10SM CLR 12/01 A3017 RMK AO2 SLP208 T01220006 56033
KJEF 161953Z 12004KT 10SM CLR 11/00 A3020 RMK AO2 SLP219 T01110000
KJEF 161853Z VRB03KT 10SM CLR 10/M01 A3023 RMK AO2 SLP231 T01001006
KJEF 161753Z 10006KT 10SM CLR 09/M01 A3026 RMK AO2 SLP243 T00891006 10089 21039 58025
KJEF 161653Z 12006KT 10SM CLR 06/M02 A3031 RMK AO2 SLP257 T00611017
KJEF 161553Z 12007KT 10SM CLR 03/M03 A3034 RMK AO2 SLP269 T00331028
KJEF 161453Z 14005KT 10SM CLR 00/M03 A3034 RMK AO2 SLP270 T00001028 56001
KJEF 161353Z 12004KT 10SM CLR M02/M04 A3034 RMK AO2 SLP270 T10221039
KJEF 161253Z 12006KT 10SM CLR M04/M06 A3034 RMK AO2 SLP269 T10391056
KJEF 161153Z 11004KT 10SM CLR M03/M06 A3034 RMK AO2 SLP270 T10331056 11011 21039 53002
KJEF 161053Z AUTO 00000KT 10SM CLR M03/M06 A3034 RMK AO2 SLP268 T10331056
KJEF 160953Z AUTO 00000KT 10SM CLR M03/M06 A3033 RMK AO2 SLP266 T10331061
KJEF 160853Z AUTO 11003KT 10SM CLR M02/M06 A3034 RMK AO2 SLP267 T10221056 58006